Time;durP1;ratioP1;P1;durP2;ratioP2;P2;SDS_P1;SDS_P2;PMS_P1;PMS_P2;Temp;Humidity;BMP_temperature;BMP_pressure;BME280_temperature;BME280_humidity;BME280_pressure;Samples;Min_cycle;Max_cycle;Signal;HPM_P1;HPM_P2
2023/09/05 00:02:21;;;;;;;106.87;3.00;;;23.40;23.80;;;;;;5022973;28;20542;-72
2023/09/05 00:04:47;;;;;;;105.80;2.77;;;23.30;22.30;;;;;;5025109;28;20204;-72
2023/09/05 00:07:13;;;;;;;106.10;2.90;;;23.10;22.60;;;;;;5029515;28;20185;-72
2023/09/05 00:09:39;;;;;;;105.40;2.50;;;23.30;23.00;;;;;;5029478;28;20284;-72
2023/09/05 00:12:06;;;;;;;105.63;2.73;;;23.30;22.60;;;;;;5027309;28;21005;-72
2023/09/05 00:14:31;;;;;;;105.80;2.87;;;23.50;24.50;;;;;;5021266;28;20197;-71
2023/09/05 00:16:57;;;;;;;105.47;2.40;;;23.40;24.10;;;;;;5031153;28;20441;-71
2023/09/05 00:19:23;;;;;;;106.10;3.03;;;23.70;23.90;;;;;;5027964;28;20202;-72
2023/09/05 00:21:48;;;;;;;105.70;2.60;;;23.50;23.40;;;;;;5029249;28;20224;-71
2023/09/05 00:24:31;;;;;;;106.67;3.17;;;23.50;23.90;;;;;;5016792;28;20191;-72
2023/09/05 00:27:00;;;;;;;105.67;2.57;;;23.60;22.50;;;;;;5029860;28;20183;-71
2023/09/05 00:29:29;;;;;;;106.00;2.73;;;23.70;22.60;;;;;;5025721;28;20434;-71
2023/09/05 00:31:58;;;;;;;105.47;2.70;;;23.50;24.20;;;;;;5025045;28;20946;-72
2023/09/05 00:34:26;;;;;;;105.60;2.60;;;23.50;23.90;;;;;;5014869;28;20922;-71
2023/09/05 00:36:52;;;;;;;105.60;2.80;;;23.50;24.10;;;;;;5023342;28;20533;-71
2023/09/05 00:39:18;;;;;;;105.83;2.60;;;23.50;24.60;;;;;;5032052;28;20821;-72
2023/09/05 00:41:43;;;;;;;106.10;3.07;;;23.40;24.10;;;;;;5033323;22;20578;-77
2023/09/05 00:44:10;;;;;;;105.70;2.93;;;23.50;25.30;;;;;;5013859;28;20292;-79
2023/09/05 00:46:35;;;;;;;106.90;3.13;;;23.50;24.30;;;;;;5024995;28;20180;-76
2023/09/05 00:49:04;;;;;;;106.57;2.80;;;23.70;24.80;;;;;;5004567;28;20444;-78
2023/09/05 00:51:33;;;;;;;106.90;3.03;;;23.60;24.40;;;;;;5011733;28;20208;-76
2023/09/05 00:54:00;;;;;;;105.90;2.97;;;23.40;25.10;;;;;;5005992;28;20435;-76
2023/09/05 00:56:26;;;;;;;106.30;2.97;;;23.20;24.20;;;;;;5011920;28;20436;-76
2023/09/05 00:58:52;;;;;;;105.83;2.73;;;23.10;25.60;;;;;;5008908;28;20981;-76
2023/09/05 01:01:17;;;;;;;105.80;2.67;;;23.00;26.10;;;;;;5007336;28;20212;-79
2023/09/05 01:03:43;;;;;;;106.20;3.00;;;23.20;25.60;;;;;;4999900;28;20202;-76
2023/09/05 01:06:22;;;;;;;106.00;2.90;;;22.90;25.90;;;;;;5001916;28;20659;-76
2023/09/05 01:08:57;;;;;;;106.37;2.90;;;22.80;25.20;;;;;;5004217;28;20194;-79
2023/09/05 01:11:24;;;;;;;106.47;3.20;;;22.90;26.20;;;;;;5004122;28;20511;-76
2023/09/05 01:13:50;;;;;;;106.57;2.80;;;22.80;26.90;;;;;;5005374;28;20446;-78
2023/09/05 01:16:15;;;;;;;105.97;2.70;;;22.80;26.80;;;;;;5002802;28;20464;-76
2023/09/05 01:18:41;;;;;;;106.00;2.67;;;23.20;24.40;;;;;;5008638;28;20431;-76
2023/09/05 01:21:32;;;;;;;106.37;2.90;;;22.90;25.00;;;;;;5003813;28;20206;-76
2023/09/05 01:24:16;;;;;;;106.30;3.03;;;22.70;25.70;;;;;;5004975;28;20237;-76
2023/09/05 01:26:42;;;;;;;106.27;2.87;;;22.60;27.20;;;;;;5001972;28;20417;-76
2023/09/05 01:29:11;;;;;;;106.17;2.87;;;23.10;24.80;;;;;;5012282;28;20445;-76
2023/09/05 01:31:37;;;;;;;106.30;2.90;;;22.90;26.20;;;;;;5022097;28;20896;-76
2023/09/05 01:34:03;;;;;;;105.97;2.53;;;22.80;25.90;;;;;;5009342;28;20441;-76
2023/09/05 01:36:28;;;;;;;106.93;3.20;;;22.80;26.30;;;;;;5002592;28;20476;-78
2023/09/05 01:38:54;;;;;;;106.27;2.77;;;22.60;25.20;;;;;;4995913;28;20214;-76
2023/09/05 01:41:20;;;;;;;106.70;3.20;;;22.80;25.10;;;;;;5001507;28;20255;-77
2023/09/05 01:43:46;;;;;;;106.97;3.20;;;22.80;26.60;;;;;;4997366;28;20460;-76
2023/09/05 01:46:11;;;;;;;106.67;3.27;;;22.80;25.30;;;;;;5008368;28;20642;-77
2023/09/05 01:48:37;;;;;;;106.50;2.80;;;22.50;27.00;;;;;;5001671;28;20174;-80
2023/09/05 01:51:03;;;;;;;106.50;2.97;;;22.60;26.80;;;;;;5011065;28;20201;-79
2023/09/05 01:53:29;;;;;;;106.30;2.83;;;22.70;25.50;;;;;;5011518;28;20661;-74
2023/09/05 02:17:30;;;;;;;105.80;2.63;;;22.90;25.70;;;;;;4967926;28;20518;-74
